Time;durP1;ratioP1;P1;durP2;ratioP2;P2;SDS_P1;SDS_P2;PMS_P1;PMS_P2;Temp;Humidity;BMP_temperature;BMP_pressure;BME280_temperature;BME280_humidity;BME280_pressure;Samples;Min_cycle;Max_cycle;Signal;HPM_P1;HPM_P2
2021/08/20 00:02:14;;;;;;;;;;;;;;;24.91;62.14;100838.88;5055269;28;1390;-52
2021/08/20 00:04:40;;;;;;;;;;;;;;;24.88;61.61;100827.56;5055045;28;1977;-52
2021/08/20 00:07:07;;;;;;;;;;;;;;;24.87;62.55;100834.84;5054860;28;1185;-53
2021/08/20 00:09:35;;;;;;;;;;;;;;;24.91;61.63;100836.19;5055212;28;1037;-52
2021/08/20 00:12:01;;;;;;;;;;;;;;;24.87;61.63;100834.84;5054870;28;1098;-52
2021/08/20 00:14:28;;;;;;;;;;;;;;;24.91;61.67;100828.06;5055111;28;1080;-52
2021/08/20 00:16:54;;;;;;;;;;;;;;;24.89;61.58;100821.97;5054742;28;1091;-52
2021/08/20 00:19:21;;;;;;;;;;;;;;;24.90;61.58;100830.94;5054677;28;1195;-53
2021/08/20 00:21:47;;;;;;;;;;;;;;;24.89;61.62;100823.81;5054950;28;1035;-52
2021/08/20 00:24:14;;;;;;;;;;;;;;;24.88;61.89;100822.16;5054859;28;1972;-52
2021/08/20 00:26:42;;;;;;;;;;;;;;;24.90;61.82;100830.94;5054596;28;1082;-52
2021/08/20 00:29:08;;;;;;;;;;;;;;;24.87;62.05;100831.25;5054536;28;1090;-52
2021/08/20 00:31:35;;;;;;;;;;;;;;;24.86;61.51;100824.19;5054778;28;1066;-53
2021/08/20 00:34:01;;;;;;;;;;;;;;;24.87;62.53;100832.13;5054739;28;1083;-52
2021/08/20 00:36:28;;;;;;;;;;;;;;;24.86;61.62;100832.28;5054047;28;1079;-52
2021/08/20 00:38:54;;;;;;;;;;;;;;;24.89;61.50;100835.50;5054331;28;1176;-52
2021/08/20 00:41:21;;;;;;;;;;;;;;;24.86;61.59;100829.59;5054288;28;1071;-52
2021/08/20 00:43:49;;;;;;;;;;;;;;;24.86;61.70;100829.59;5054461;28;1977;-52
2021/08/20 00:46:15;;;;;;;;;;;;;;;24.83;61.54;100836.19;5054506;28;985;-52
2021/08/20 00:48:42;;;;;;;;;;;;;;;24.89;62.00;100850.88;5054149;28;1170;-52
2021/08/20 00:51:11;;;;;;;;;;;;;;;24.85;61.52;100834.16;5054413;28;1051;-52
2021/08/20 00:53:38;;;;;;;;;;;;;;;24.90;61.92;100858.81;5054663;28;1075;-52
2021/08/20 00:56:06;;;;;;;;;;;;;;;24.88;61.29;100843.78;5053924;28;1082;-52
2021/08/20 00:58:32;;;;;;;;;;;;;;;24.85;61.48;100839.56;5054299;28;1078;-52
2021/08/20 01:01:00;;;;;;;;;;;;;;;24.84;62.00;100827.06;5054973;28;1032;-52
2021/08/20 01:03:27;;;;;;;;;;;;;;;24.83;62.17;100841.63;5053563;28;1968;-52
2021/08/20 01:05:54;;;;;;;;;;;;;;;24.86;61.86;100835.84;5053812;28;1150;-52
2021/08/20 01:08:21;;;;;;;;;;;;;;;24.85;62.04;100846.81;5053931;28;1075;-52
2021/08/20 01:10:48;;;;;;;;;;;;;;;24.82;61.54;100829.09;5054081;28;992;-52
2021/08/20 01:13:15;;;;;;;;;;;;;;;24.81;61.46;100832.81;5054007;28;1084;-52
2021/08/20 01:15:41;;;;;;;;;;;;;;;24.85;61.53;100831.47;5054080;28;1007;-52
2021/08/20 01:18:09;;;;;;;;;;;;;;;24.81;61.54;100832.81;5053972;28;1055;-52
2021/08/20 01:20:35;;;;;;;;;;;;;;;24.86;62.20;100846.66;5053624;28;1165;-52
2021/08/20 01:23:05;;;;;;;;;;;;;;;24.85;61.87;100844.13;5053823;28;1973;-52
2021/08/20 01:25:34;;;;;;;;;;;;;;;24.84;61.82;100839.75;5053696;28;1070;-53
2021/08/20 01:28:07;;;;;;;;;;;;;;;24.85;62.46;100838.72;5053509;28;1059;-52
2021/08/20 01:30:33;;;;;;;;;;;;;;;24.85;62.39;100853.09;5053723;28;1011;-53
2021/08/20 01:32:59;;;;;;;;;;;;;;;24.84;61.94;100853.25;5053404;28;1098;-52
2021/08/20 01:35:26;;;;;;;;;;;;;;;24.84;61.58;100853.25;5053740;28;1084;-52
2021/08/20 01:37:52;;;;;;;;;;;;;;;24.83;61.60;100852.44;5053952;28;1079;-52
2021/08/20 01:40:19;;;;;;;;;;;;;;;24.84;61.90;100864.91;5053378;28;1106;-53
2021/08/20 01:42:47;;;;;;;;;;;;;;;24.81;61.82;100852.59;5053338;28;1118;-52
2021/08/20 01:45:14;;;;;;;;;;;;;;;24.81;61.53;100836.38;5053529;28;1971;-52
2021/08/20 01:47:40;;;;;;;;;;;;;;;24.79;61.43;100841.09;5053071;28;1083;-52
2021/08/20 01:50:07;;;;;;;;;;;;;;;24.80;61.36;100839.25;5053580;28;1059;-52
2021/08/20 01:52:34;;;;;;;;;;;;;;;24.83;61.53;100846.16;5053551;28;1076;-52
2021/08/20 01:55:00;;;;;;;;;;;;;;;24.80;61.74;100841.94;5053250;28;1149;-52
2021/08/20 01:57:27;;;;;;;;;;;;;;;24.81;61.74;100846.34;5053138;28;1071;-52
2021/08/20 01:59:54;;;;;;;;;;;;;;;24.82;61.46;100834.50;5053508;28;1060;-52
2021/08/20 02:02:21;;;;;;;;;;;;;;;24.84;61.54;100848.69;5159228;22;3741;-55
2021/08/20 02:04:47;;;;;;;;;;;;;;;24.80;61.44;100833.81;5053343;28;1906;-53
2021/08/20 02:07:14;;;;;;;;;;;;;;;24.79;61.39;100840.28;5053534;28;1088;-53
2021/08/20 02:09:40;;;;;;;;;;;;;;;24.81;61.89;100855.28;5053405;28;1177;-53
2021/08/20 02:12:07;;;;;;;;;;;;;;;24.83;61.92;100856.97;5053123;28;1181;-53
2021/08/20 02:14:34;;;;;;;;;;;;;;;24.84;62.20;100859.50;5053583;28;1005;-53
2021/08/20 02:17:01;;;;;;;;;;;;;;;24.81;61.38;100846.34;5053495;28;1919;-53
2021/08/20 02:19:28;;;;;;;;;;;;;;;24.81;61.50;100832.81;5053322;28;1080;-53
2021/08/20 02:21:54;;;;;;;;;;;;;;;24.77;61.45;100850.38;5053335;28;1031;-53
2021/08/20 02:24:21;;;;;;;;;;;;;;;24.84;61.56;100864.09;5053234;28;1890;-53
2021/08/20 02:26:47;;;;;;;;;;;;;;;24.81;61.93;100866.13;5052997;28;1098;-53
2021/08/20 02:29:14;;;;;;;;;;;;;;;24.78;61.92;100855.63;5052976;28;1094;-53
2021/08/20 02:31:40;;;;;;;;;;;;;;;24.81;62.16;100865.28;5052931;28;1110;-53
2021/08/20 02:34:08;;;;;;;;;;;;;;;24.77;62.38;100862.06;5052908;28;1079;-53
2021/08/20 02:36:35;;;;;;;;;;;;;;;24.78;62.37;100871.84;5052852;28;1160;-53
2021/08/20 02:39:01;;;;;;;;;;;;;;;24.77;61.32;100870.19;5052878;28;1078;-53
2021/08/20 02:41:29;;;;;;;;;;;;;;;24.79;61.70;100881.69;5053132;28;1051;-53
2021/08/20 02:43:55;;;;;;;;;;;;;;;24.75;61.47;100871.34;5052994;28;1905;-53
2021/08/20 02:46:22;;;;;;;;;;;;;;;24.77;61.46;100869.31;5052865;28;1146;-53
2021/08/20 02:48:49;;;;;;;;;;;;;;;24.78;62.24;100879.13;5053109;28;1055;-53
2021/08/20 02:51:16;;;;;;;;;;;;;;;24.76;61.42;100864.94;5053042;28;1217;-53
2021/08/20 02:53:43;;;;;;;;;;;;;;;24.80;61.24;100877.94;5052657;28;1086;-53
2021/08/20 02:56:09;;;;;;;;;;;;;;;24.77;61.27;100874.72;5053251;28;1068;-53
2021/08/20 02:58:36;;;;;;;;;;;;;;;24.80;62.14;100885.22;5053864;28;1134;-53
2021/08/20 03:01:02;;;;;;;;;;;;;;;24.78;61.58;100876.44;5056557;28;1087;-53
2021/08/20 03:03:29;;;;;;;;;;;;;;;24.75;62.01;100864.09;5055953;28;1329;-53
2021/08/20 03:05:55;;;;;;;;;;;;;;;24.78;61.62;100879.13;5056024;28;1902;-53
2021/08/20 03:08:23;;;;;;;;;;;;;;;24.74;61.39;100869.69;5056447;28;1046;-53
2021/08/20 03:10:50;;;;;;;;;;;;;;;24.76;61.59;100875.75;5056348;28;1001;-53
2021/08/20 03:13:16;;;;;;;;;;;;;;;24.72;61.88;100861.72;5056338;28;1084;-53
2021/08/20 03:15:43;;;;;;;;;;;;;;;24.73;61.29;100871.53;5056806;28;993;-53
2021/08/20 03:18:09;;;;;;;;;;;;;;;24.79;61.98;100897.06;5055838;28;1519;-53
2021/08/20 03:20:36;;;;;;;;;;;;;;;24.76;61.47;100871.19;5056157;28;1091;-53
2021/08/20 03:23:02;;;;;;;;;;;;;;;24.78;62.24;100892.66;5055837;28;1106;-53
2021/08/20 03:25:30;;;;;;;;;;;;;;;24.74;61.79;100883.19;5056024;28;1906;-53
2021/08/20 03:27:56;;;;;;;;;;;;;;;24.76;61.87;100889.28;5056418;28;1086;-53
2021/08/20 03:30:23;;;;;;;;;;;;;;;24.74;61.43;100891.31;5055845;28;1095;-53
2021/08/20 03:32:49;;;;;;;;;;;;;;;24.73;61.30;100886.91;5055961;28;1080;-53
2021/08/20 03:35:16;;;;;;;;;;;;;;;24.72;61.36;100887.94;5055923;28;1088;-53
2021/08/20 03:37:42;;;;;;;;;;;;;;;24.76;61.65;100900.94;5055856;28;1083;-53
2021/08/20 03:40:09;;;;;;;;;;;;;;;24.73;61.50;100889.59;5055486;28;1110;-53
2021/08/20 03:42:37;;;;;;;;;;;;;;;24.73;61.23;100897.72;5055388;28;1232;-53
2021/08/20 03:45:03;;;;;;;;;;;;;;;24.72;61.47;100894.19;5055654;28;1910;-53
2021/08/20 03:47:30;;;;;;;;;;;;;;;24.73;61.49;100897.72;5056019;28;1080;-53
2021/08/20 03:49:56;;;;;;;;;;;;;;;24.74;61.26;100896.72;5055669;28;1079;-53
2021/08/20 03:52:23;;;;;;;;;;;;;;;24.76;61.96;100919.88;5055863;28;1945;-53
2021/08/20 03:54:50;;;;;;;;;;;;;;;24.72;61.29;100902.28;5055214;28;1094;-53
2021/08/20 03:57:16;;;;;;;;;;;;;;;24.78;61.75;100923.25;5055216;28;1152;-53
2021/08/20 03:59:44;;;;;;;;;;;;;;;24.75;61.64;100909.22;5055519;28;964;-53
2021/08/20 04:02:11;;;;;;;;;;;;;;;24.74;61.25;100915.66;5055145;28;1447;-53
2021/08/20 04:04:37;;;;;;;;;;;;;;;24.74;61.61;100921.06;5054890;28;1905;-53
2021/08/20 04:07:04;;;;;;;;;;;;;;;24.73;61.54;100913.94;5055345;28;1004;-53
2021/08/20 04:09:30;;;;;;;;;;;;;;;24.76;61.34;100925.28;5055235;28;1001;-53
2021/08/20 04:11:57;;;;;;;;;;;;;;;24.77;61.64;100918.00;5054931;28;917;-53
2021/08/20 04:14:23;;;;;;;;;;;;;;;24.73;61.04;100914.81;5055239;28;1073;-53
2021/08/20 04:16:51;;;;;;;;;;;;;;;24.77;61.26;100928.81;5055120;28;1007;-53
2021/08/20 04:19:17;;;;;;;;;;;;;;;24.78;60.91;100906.19;5054780;28;1134;-53
2021/08/20 04:21:44;;;;;;;;;;;;;;;24.85;60.91;100928.84;5055032;28;1084;-53
2021/08/20 04:24:14;;;;;;;;;;;;;;;24.88;60.85;100920.38;5054917;28;1967;-53
2021/08/20 04:26:41;;;;;;;;;;;;;;;24.97;60.76;100924.75;5054631;28;1094;-53
2021/08/20 04:29:07;;;;;;;;;;;;;;;25.02;61.24;100924.25;5054584;28;1083;-53
2021/08/20 04:31:34;;;;;;;;;;;;;;;25.04;60.99;100919.50;5055173;28;1927;-53
2021/08/20 04:34:01;;;;;;;;;;;;;;;25.13;60.84;100936.59;5054467;28;1082;-53
2021/08/20 04:36:28;;;;;;;;;;;;;;;25.13;60.11;100929.31;5054717;28;1076;-53
2021/08/20 04:38:54;;;;;;;;;;;;;;;25.10;60.26;100928.78;5054676;28;1029;-53
2021/08/20 04:41:21;;;;;;;;;;;;;;;25.07;61.09;100929.13;5054557;28;1066;-53
2021/08/20 04:43:49;;;;;;;;;;;;;;;25.11;60.05;100930.47;5054598;28;1004;-53
2021/08/20 04:46:16;;;;;;;;;;;;;;;25.18;60.96;100940.44;5054208;28;1906;-53
2021/08/20 04:48:42;;;;;;;;;;;;;;;25.19;59.96;100933.19;5054195;28;1062;-53
2021/08/20 04:51:11;;;;;;;;;;;;;;;25.15;60.68;100943.50;5054516;28;1080;-53
2021/08/20 04:53:37;;;;;;;;;;;;;;;25.15;60.70;100931.84;5054189;28;1299;-53
2021/08/20 04:56:04;;;;;;;;;;;;;;;25.12;61.12;100943.00;5054397;28;1043;-53
2021/08/20 04:58:30;;;;;;;;;;;;;;;25.06;61.27;100938.28;5054349;28;1050;-53
2021/08/20 05:00:57;;;;;;;;;;;;;;;25.06;60.50;100943.69;5054292;28;1091;-53
2021/08/20 05:03:24;;;;;;;;;;;;;;;25.02;61.19;100949.41;5053945;28;1420;-53
2021/08/20 05:05:51;;;;;;;;;;;;;;;25.08;61.15;100944.34;5054216;28;1906;-53
2021/08/20 05:08:19;;;;;;;;;;;;;;;25.06;60.94;100932.84;5053893;28;1154;-53
2021/08/20 05:10:45;;;;;;;;;;;;;;;25.09;61.15;100955.03;5054135;28;1002;-53
2021/08/20 05:13:12;;;;;;;;;;;;;;;25.04;60.24;100934.91;5054190;28;1084;-53
2021/08/20 05:15:38;;;;;;;;;;;;;;;25.06;60.83;100940.97;5054443;28;1949;-53
2021/08/20 05:18:05;;;;;;;;;;;;;;;25.07;61.10;100956.19;5053975;28;1039;-53
2021/08/20 05:20:31;;;;;;;;;;;;;;;25.06;61.39;100951.81;5053625;28;1062;-53
2021/08/20 05:22:58;;;;;;;;;;;;;;;25.04;61.35;100964.66;5053533;28;1007;-53
2021/08/20 05:25:27;;;;;;;;;;;;;;;25.01;61.14;100952.31;5053559;28;1906;-53
2021/08/20 05:27:54;;;;;;;;;;;;;;;25.00;61.52;100939.81;5053892;28;960;-53
2021/08/20 05:30:20;;;;;;;;;;;;;;;25.02;61.42;100954.84;5053861;28;1064;-53
2021/08/20 05:32:47;;;;;;;;;;;;;;;25.08;61.13;100963.31;5053601;28;1106;-53
2021/08/20 05:35:14;;;;;;;;;;;;;;;25.06;61.05;100949.09;5053787;28;999;-53
2021/08/20 05:37:40;;;;;;;;;;;;;;;25.09;61.23;100970.38;5053448;28;1141;-53
2021/08/20 05:40:08;;;;;;;;;;;;;;;25.10;61.54;100966.69;5053994;28;1001;-53
2021/08/20 05:42:36;;;;;;;;;;;;;;;25.12;61.42;100967.34;5053858;28;1081;-53
2021/08/20 05:45:02;;;;;;;;;;;;;;;25.10;60.67;100961.25;5053554;28;1977;-53
2021/08/20 05:47:29;;;;;;;;;;;;;;;25.11;61.00;100969.22;5053680;28;1054;-53
2021/08/20 05:49:55;;;;;;;;;;;;;;;25.14;60.73;100954.50;5053669;28;1093;-53
2021/08/20 05:52:22;;;;;;;;;;;;;;;25.17;60.95;100963.13;5053322;28;1340;-53
2021/08/20 05:54:48;;;;;;;;;;;;;;;25.16;61.02;100971.41;5053522;28;1538;-53
2021/08/20 05:57:14;;;;;;;;;;;;;;;25.17;61.03;100956.88;5053604;28;1046;-53
2021/08/20 05:59:42;;;;;;;;;;;;;;;25.20;61.12;100967.34;5053551;28;1053;-53
2021/08/20 06:02:09;;;;;;;;;;;;;;;25.18;60.78;100970.22;5053187;28;1396;-53
2021/08/20 06:04:36;;;;;;;;;;;;;;;25.22;61.09;100965.34;5053093;28;1906;-53
2021/08/20 06:07:02;;;;;;;;;;;;;;;25.23;61.30;100972.44;5053428;28;1015;-53
2021/08/20 06:09:29;;;;;;;;;;;;;;;25.23;60.90;100964.34;5053384;28;1127;-53
2021/08/20 06:11:55;;;;;;;;;;;;;;;25.24;60.22;100960.59;5053462;28;1062;-53
2021/08/20 06:14:22;;;;;;;;;;;;;;;25.22;60.89;100961.78;5053471;28;1071;-53
2021/08/20 06:16:54;;;;;;;;;;;;;;;25.25;60.53;100981.25;5053419;28;1001;-53
2021/08/20 06:19:20;;;;;;;;;;;;;;;25.25;60.64;100965.00;5053256;28;1067;-53
2021/08/20 06:21:47;;;;;;;;;;;;;;;25.27;61.16;100978.34;5053614;28;1035;-53
2021/08/20 06:24:13;;;;;;;;;;;;;;;25.27;60.83;100962.97;5053304;28;1176;-53
2021/08/20 06:26:40;;;;;;;;;;;;;;;25.28;61.24;100959.22;5052935;28;1976;-53
2021/08/20 06:29:06;;;;;;;;;;;;;;;25.31;60.40;100963.47;5052887;28;1110;-53
2021/08/20 06:31:32;;;;;;;;;;;;;;;25.26;60.72;100946.88;5053237;28;1000;-53
2021/08/20 06:34:00;;;;;;;;;;;;;;;25.28;61.22;100958.38;5054878;28;1173;-53
2021/08/20 06:36:27;;;;;;;;;;;;;;;25.29;60.93;100958.22;5057106;28;960;-53
2021/08/20 06:38:53;;;;;;;;;;;;;;;25.28;61.07;100975.47;5057001;28;1055;-53
2021/08/20 06:41:20;;;;;;;;;;;;;;;25.29;61.08;100966.34;5056828;28;995;-53
2021/08/20 06:43:46;;;;;;;;;;;;;;;25.32;60.38;100960.56;5056837;28;1169;-53
2021/08/20 07:01:10;;;;;;;;;;;;;;;25.35;61.35;100954.81;4750886;27;10001937;-56
2021/08/20 07:03:36;;;;;;;;;;;;;;;25.31;61.28;100972.44;5101543;28;1783;-56
2021/08/20 07:06:03;;;;;;;;;;;;;;;25.38;60.24;100965.28;5101684;28;2299;-56
2021/08/20 07:08:29;;;;;;;;;;;;;;;25.33;61.09;100961.44;5102364;28;1984;-56
2021/08/20 07:10:56;;;;;;;;;;;;;;;25.36;60.78;100969.19;5098788;28;1801;-57
2021/08/20 07:13:23;;;;;;;;;;;;;;;25.34;60.55;100947.72;5100732;28;1823;-56
2021/08/20 07:15:50;;;;;;;;;;;;;;;25.36;61.18;100961.91;5100584;28;1649;-57
2021/08/20 07:18:19;;;;;;;;;;;;;;;25.35;60.27;100945.88;5102032;28;1455;-56
2021/08/20 07:20:46;;;;;;;;;;;;;;;25.33;60.64;100959.56;5099073;28;1937;-56
2021/08/20 07:23:12;;;;;;;;;;;;;;;25.36;60.62;100967.31;5101153;28;1945;-56
2021/08/20 07:25:39;;;;;;;;;;;;;;;25.33;60.55;100967.69;5100905;28;1914;-57
2021/08/20 07:28:05;;;;;;;;;;;;;;;25.37;61.22;100970.91;5098356;28;1484;-56
2021/08/20 07:30:32;;;;;;;;;;;;;;;25.34;61.07;100958.53;5099082;28;2057;-56
2021/08/20 07:32:58;;;;;;;;;;;;;;;25.38;61.39;100970.69;5100110;28;1780;-56
2021/08/20 07:35:26;;;;;;;;;;;;;;;25.36;61.41;100967.31;5101496;28;1611;-57
2021/08/20 07:37:53;;;;;;;;;;;;;;;25.38;60.52;100962.59;5098521;28;1605;-57
2021/08/20 07:40:19;;;;;;;;;;;;;;;25.37;60.65;100963.63;5099440;28;1621;-56
2021/08/20 07:42:46;;;;;;;;;;;;;;;25.36;60.86;100952.94;5099224;28;1587;-56
2021/08/20 07:45:12;;;;;;;;;;;;;;;25.39;61.29;100958.03;5098289;28;1941;-57
2021/08/20 07:47:45;;;;;;;;;;;;;;;25.38;60.79;100949.03;5101642;28;1067;-56
2021/08/20 07:50:12;;;;;;;;;;;;;;;25.38;60.89;100949.03;5100332;28;2257;-57
2021/08/20 07:52:40;;;;;;;;;;;;;;;25.40;61.11;100957.00;5094343;28;1509;-56
2021/08/20 07:55:07;;;;;;;;;;;;;;;25.39;61.31;100939.09;5100333;28;1663;-56
2021/08/20 07:57:43;;;;;;;;;;;;;;;25.39;61.49;100949.91;5100314;28;1546;-56
2021/08/20 08:00:11;;;;;;;;;;;;;;;25.40;60.88;100949.72;5098035;28;1648;-56
2021/08/20 08:02:38;;;;;;;;;;;;;;;25.42;60.67;100949.53;5088626;28;1090;-56
2021/08/20 08:05:05;;;;;;;;;;;;;;;25.44;60.42;100946.69;5086967;28;2077;-57
2021/08/20 08:07:31;;;;;;;;;;;;;;;25.38;61.45;100954.47;5086200;28;1515;-57
2021/08/20 08:09:59;;;;;;;;;;;;;;;25.35;60.48;100944.00;5087256;28;2036;-56
2021/08/20 08:12:25;;;;;;;;;;;;;;;25.39;60.86;100950.75;5083161;28;1555;-56
2021/08/20 08:14:52;;;;;;;;;;;;;;;25.42;60.70;100956.84;5086802;28;1581;-56
2021/08/20 08:17:18;;;;;;;;;;;;;;;25.43;61.20;100939.56;5088484;28;1595;-56
2021/08/20 08:19:45;;;;;;;;;;;;;;;25.39;61.56;100950.75;5086956;28;1846;-57
2021/08/20 08:22:11;;;;;;;;;;;;;;;25.40;60.44;100954.28;5086418;28;2097;-57
2021/08/20 08:24:38;;;;;;;;;;;;;;;25.42;61.17;100946.00;5086401;28;1606;-56
2021/08/20 08:27:06;;;;;;;;;;;;;;;25.40;60.49;100938.88;5087801;28;1949;-56
2021/08/20 08:29:32;;;;;;;;;;;;;;;25.43;61.10;100939.56;5087091;28;1977;-56
2021/08/20 08:31:59;;;;;;;;;;;;;;;25.41;61.31;100931.63;5085730;28;1654;-56
2021/08/20 08:34:25;;;;;;;;;;;;;;;25.44;61.14;100957.50;5086276;28;1497;-56
2021/08/20 08:36:53;;;;;;;;;;;;;;;25.39;60.66;100929.09;5086876;28;1524;-56
2021/08/20 08:39:19;;;;;;;;;;;;;;;25.38;60.78;100921.97;5087268;28;1446;-57
2021/08/20 08:41:46;;;;;;;;;;;;;;;25.41;60.51;100942.47;5086580;28;1587;-56
2021/08/20 08:44:14;;;;;;;;;;;;;;;25.43;60.71;100945.84;5085975;28;2151;-56
2021/08/20 08:46:42;;;;;;;;;;;;;;;25.41;61.38;100928.94;5086512;28;1492;-56
2021/08/20 08:49:12;;;;;;;;;;;;;;;25.44;60.80;100938.56;5086477;28;1910;-58
2021/08/20 08:51:39;;;;;;;;;;;;;;;25.39;61.61;100937.22;5087646;28;2450;-57
2021/08/20 08:54:05;;;;;;;;;;;;;;;25.39;61.39;100929.09;5086266;28;1758;-56
2021/08/20 08:56:31;;;;;;;;;;;;;;;25.43;60.51;100928.72;5085910;28;1920;-56
2021/08/20 08:58:58;;;;;;;;;;;;;;;25.42;61.54;100933.31;5085934;28;1943;-57
2021/08/20 09:01:30;;;;;;;;;;;;;;;25.44;61.31;100930.44;5085271;28;1619;-56
2021/08/20 09:04:07;;;;;;;;;;;;;;;25.45;61.44;100932.13;5088015;28;1793;-56
2021/08/20 09:06:39;;;;;;;;;;;;;;;25.44;61.51;100925.00;5087133;28;2127;-57
2021/08/20 09:09:06;;;;;;;;;;;;;;;25.46;60.95;100939.22;5085434;28;1914;-58
2021/08/20 09:11:33;;;;;;;;;;;;;;;25.42;61.62;100935.19;5084923;28;1528;-56
2021/08/20 09:14:00;;;;;;;;;;;;;;;25.44;61.34;100923.16;5084566;28;1547;-56
2021/08/20 09:16:35;;;;;;;;;;;;;;;25.40;61.58;100930.75;5085000;28;1822;-56
2021/08/20 09:19:09;;;;;;;;;;;;;;;25.40;60.57;100919.94;5086900;28;1408;-57
2021/08/20 09:21:36;;;;;;;;;;;;;;;25.40;60.81;100928.06;5087257;28;1038;-56
2021/08/20 09:24:03;;;;;;;;;;;;;;;25.42;60.82;100924.34;5084740;28;2216;-57
2021/08/20 09:26:30;;;;;;;;;;;;;;;25.44;60.88;100930.44;5084681;28;1508;-56
2021/08/20 09:29:11;;;;;;;;;;;;;;;25.42;60.91;100921.63;5084559;28;1621;-56
2021/08/20 09:31:51;;;;;;;;;;;;;;;25.42;60.49;100933.31;5084874;28;1665;-57
2021/08/20 09:34:17;;;;;;;;;;;;;;;25.40;60.98;100916.38;5085484;28;1508;-57
2021/08/20 09:36:44;;;;;;;;;;;;;;;25.40;61.06;100911.81;5086250;28;1252;-56
2021/08/20 09:39:10;;;;;;;;;;;;;;;25.39;61.16;100915.56;5085408;28;1853;-56
2021/08/20 09:41:42;;;;;;;;;;;;;;;25.40;61.30;100919.94;5085256;28;1635;-57
2021/08/20 09:44:16;;;;;;;;;;;;;;;25.43;61.42;100915.19;5084958;28;1909;-57
2021/08/20 09:46:44;;;;;;;;;;;;;;;25.43;61.48;100913.34;5082759;28;1538;-56
2021/08/20 09:49:13;;;;;;;;;;;;;;;25.38;61.00;100903.03;5085255;28;1906;-57
2021/08/20 09:51:40;;;;;;;;;;;;;;;25.43;60.91;100912.47;5085832;28;2218;-56
2021/08/20 09:54:08;;;;;;;;;;;;;;;25.42;61.07;100908.09;5085036;28;1835;-56
2021/08/20 09:56:36;;;;;;;;;;;;;;;25.40;61.42;100902.84;5084446;28;1923;-56
2021/08/20 09:59:03;;;;;;;;;;;;;;;25.42;61.61;100903.53;5081680;28;1721;-57
2021/08/20 10:01:31;;;;;;;;;;;;;;;25.47;61.42;100919.25;5084638;28;1437;-57
2021/08/20 10:03:59;;;;;;;;;;;;;;;25.49;61.57;100911.81;5085599;28;1946;-56
2021/08/20 10:06:32;;;;;;;;;;;;;;;25.45;60.71;100905.91;5084870;28;1606;-56
2021/08/20 10:08:59;;;;;;;;;;;;;;;25.44;61.75;100901.47;5084599;28;1755;-57
2021/08/20 10:11:27;;;;;;;;;;;;;;;25.44;61.77;100906.91;5084412;28;1901;-57
2021/08/20 10:13:54;;;;;;;;;;;;;;;25.44;61.76;100903.34;5083222;28;1689;-56
2021/08/20 10:16:21;;;;;;;;;;;;;;;25.45;60.68;100913.19;5084346;28;2013;-56
2021/08/20 10:18:49;;;;;;;;;;;;;;;25.47;60.86;100913.84;5083415;28;1103;-57
2021/08/20 10:21:16;;;;;;;;;;;;;;;25.44;61.47;100892.53;5084397;28;1901;-57
2021/08/20 10:23:45;;;;;;;;;;;;;;;25.46;61.12;100895.91;5081772;28;2170;-56
2021/08/20 10:26:12;;;;;;;;;;;;;;;25.43;61.33;100898.94;5083952;28;1579;-57
2021/08/20 10:28:39;;;;;;;;;;;;;;;25.46;60.77;100898.59;5084171;28;1651;-56
2021/08/20 10:31:08;;;;;;;;;;;;;;;25.46;61.52;100894.03;5082509;28;1991;-56
2021/08/20 10:33:37;;;;;;;;;;;;;;;25.46;61.17;100890.47;5085566;28;1574;-57
2021/08/20 10:36:04;;;;;;;;;;;;;;;25.50;61.75;100897.25;5082926;28;1847;-57
2021/08/20 10:38:33;;;;;;;;;;;;;;;25.47;60.96;100903.03;5083532;28;1760;-56
2021/08/20 10:41:08;;;;;;;;;;;;;;;25.43;60.93;100888.13;5084028;28;1585;-56
2021/08/20 10:43:47;;;;;;;;;;;;;;;25.43;61.53;100885.41;5082466;28;1544;-57
2021/08/20 10:46:33;;;;;;;;;;;;;;;25.43;61.27;100880.88;5080618;28;1660;-54
2021/08/20 10:49:18;;;;;;;;;;;;;;;25.43;61.62;100885.41;5084640;28;2083;-55
2021/08/20 10:52:01;;;;;;;;;;;;;;;25.46;61.81;100895.91;5088055;28;2229;-56
2021/08/20 10:54:46;;;;;;;;;;;;;;;25.45;61.22;100886.09;5087767;28;1581;-56
2021/08/20 10:57:27;;;;;;;;;;;;;;;25.45;60.99;100870.69;5090629;28;1159;-56
2021/08/20 10:59:56;;;;;;;;;;;;;;;25.43;61.92;100863.75;5090148;28;2453;-56
2021/08/20 11:02:41;;;;;;;;;;;;;;;25.46;61.26;100869.66;5090586;28;1770;-56
2021/08/20 11:05:09;;;;;;;;;;;;;;;25.47;61.54;100857.00;5079857;28;1431;-56
2021/08/20 11:07:45;;;;;;;;;;;;;;;25.48;60.86;100870.31;5090603;28;1938;-56
2021/08/20 11:10:26;;;;;;;;;;;;;;;25.49;61.78;100869.31;5082363;28;1980;-56
2021/08/20 11:13:00;;;;;;;;;;;;;;;25.44;61.51;100850.03;5079511;28;1589;-56
2021/08/20 11:15:44;;;;;;;;;;;;;;;25.47;61.01;100857.00;5090265;28;1777;-56
2021/08/20 11:18:11;;;;;;;;;;;;;;;25.49;60.91;100841.41;5083278;28;1004;-56
2021/08/20 11:20:38;;;;;;;;;;;;;;;25.49;61.16;100836.00;5090568;28;2042;-56
2021/08/20 11:23:16;;;;;;;;;;;;;;;25.47;61.09;100849.72;5090738;28;1896;-56
2021/08/20 11:25:43;;;;;;;;;;;;;;;25.48;61.50;100829.72;5091327;28;1600;-56
2021/08/20 11:28:10;;;;;;;;;;;;;;;25.48;61.04;100835.13;5090433;28;1833;-56
2021/08/20 11:30:38;;;;;;;;;;;;;;;25.48;60.77;100837.84;5090659;28;1906;-56
2021/08/20 11:33:16;;;;;;;;;;;;;;;25.50;61.31;100821.44;5091843;28;1007;-56
2021/08/20 11:35:43;;;;;;;;;;;;;;;25.49;61.82;100830.59;5091059;28;1620;-56
2021/08/20 11:38:10;;;;;;;;;;;;;;;25.49;61.63;100831.41;5094211;28;1457;-56
2021/08/20 11:40:59;;;;;;;;;;;;;;;25.52;60.97;100830.22;5094424;28;1903;-56
2021/08/20 11:43:27;;;;;;;;;;;;;;;25.53;61.06;100829.22;5092330;28;1958;-56
2021/08/20 11:45:54;;;;;;;;;;;;;;;25.51;61.86;100825.84;5094121;28;1985;-56
2021/08/20 11:48:22;;;;;;;;;;;;;;;25.50;61.02;100824.97;5095665;28;1121;-56
2021/08/20 11:50:49;;;;;;;;;;;;;;;25.49;61.37;100811.63;5093965;28;1907;-56
2021/08/20 11:53:25;;;;;;;;;;;;;;;25.51;61.19;100809.59;5093603;28;1844;-56
2021/08/20 11:55:52;;;;;;;;;;;;;;;25.50;60.88;100822.25;5094039;28;1728;-56
2021/08/20 11:58:28;;;;;;;;;;;;;;;25.50;61.25;100816.84;5093562;28;1549;-56
2021/08/20 12:00:54;;;;;;;;;;;;;;;25.49;61.14;100803.50;5093266;28;1645;-56
2021/08/20 12:03:22;;;;;;;;;;;;;;;25.50;61.94;100814.13;5095222;28;1111;-56
2021/08/20 12:05:49;;;;;;;;;;;;;;;25.49;61.54;100792.69;5093557;28;1767;-56
2021/08/20 12:08:18;;;;;;;;;;;;;;;25.49;61.77;100814.34;5093799;28;1377;-56
2021/08/20 12:10:46;;;;;;;;;;;;;;;25.52;61.91;100803.13;5093921;28;1984;-56
2021/08/20 12:13:13;;;;;;;;;;;;;;;25.51;60.91;100809.59;5093648;28;1832;-56
2021/08/20 12:15:40;;;;;;;;;;;;;;;25.47;61.90;100806.38;5093463;28;1715;-56
2021/08/20 12:18:19;;;;;;;;;;;;;;;25.52;60.79;100803.97;5095149;28;1087;-56
2021/08/20 12:20:47;;;;;;;;;;;;;;;25.52;61.35;100803.97;5093414;28;1963;-56
2021/08/20 12:23:13;;;;;;;;;;;;;;;25.51;61.23;100806.88;5093632;28;1777;-56
2021/08/20 12:25:41;;;;;;;;;;;;;;;25.52;61.00;100813.97;5092832;28;1346;-56
2021/08/20 12:28:11;;;;;;;;;;;;;;;25.51;61.79;100806.88;5090757;28;1855;-56
2021/08/20 12:30:40;;;;;;;;;;;;;;;25.54;60.93;100828.16;5093682;28;1967;-56
2021/08/20 12:33:10;;;;;;;;;;;;;;;25.52;61.86;100805.84;5094652;28;1177;-56
2021/08/20 12:38:40;;;;;;;;;;;;;;;25.50;61.82;100797.88;5092247;28;2399;-56
2021/08/20 12:41:07;;;;;;;;;;;;;;;25.52;61.54;100789.59;5093991;28;1693;-57
2021/08/20 12:43:38;;;;;;;;;;;;;;;25.53;61.41;100777.75;5092693;28;1973;-56
2021/08/20 12:49:05;;;;;;;;;;;;;;;25.52;61.71;100786.88;5094712;28;1898;-56
2021/08/20 12:51:32;;;;;;;;;;;;;;;25.52;61.10;100803.13;5091783;28;2058;-56
2021/08/20 12:54:10;;;;;;;;;;;;;;;25.52;60.98;100776.91;5093401;28;1652;-56
2021/08/20 12:56:38;;;;;;;;;;;;;;;25.54;61.80;100791.09;5092904;28;1681;-56
2021/08/20 12:59:05;;;;;;;;;;;;;;;25.54;61.67;100790.25;5091088;28;1618;-56
2021/08/20 13:01:32;;;;;;;;;;;;;;;25.55;61.43;100781.97;5092149;28;1421;-56
2021/08/20 13:03:58;;;;;;;;;;;;;;;25.50;61.58;100778.94;5094342;28;1110;-56
2021/08/20 13:06:25;;;;;;;;;;;;;;;25.52;61.12;100776.91;5092478;28;2135;-56
2021/08/20 13:08:54;;;;;;;;;;;;;;;25.49;61.80;100773.72;5091360;28;1864;-56
2021/08/20 13:11:53;;;;;;;;;;;;;;;25.50;61.64;100778.94;5089330;28;1975;-56
2021/08/20 13:14:21;;;;;;;;;;;;;;;25.52;61.56;100779.59;5093006;28;2089;-56